createdAt,value
2019-02-10T00:01:14.991Z,70.60
2019-02-10T00:03:46.355Z,70.61
2019-02-10T00:06:24.484Z,71.43
2019-02-10T00:08:50.908Z,71.68
2019-02-10T00:11:22.177Z,71.72
2019-02-10T00:13:53.587Z,72.12
2019-02-10T00:16:25.344Z,72.54
2019-02-10T00:18:56.875Z,72.76
2019-02-10T00:21:28.515Z,73.24
2019-02-10T00:23:59.893Z,73.97
2019-02-10T00:26:33.246Z,74.65
2019-02-10T00:29:04.762Z,75.93
2019-02-10T00:31:36.263Z,76.79
2019-02-10T00:34:07.688Z,76.93
2019-02-10T00:36:39.272Z,77.39
2019-02-10T00:39:10.989Z,77.89
2019-02-10T00:41:42.764Z,78.24
2019-02-10T00:44:14.573Z,78.67
2019-02-10T00:46:46.173Z,79.19
2019-02-10T00:49:17.612Z,79.14
2019-02-10T00:51:49.032Z,78.82
2019-02-10T00:54:20.480Z,79.06
2019-02-10T00:56:52.005Z,79.02
2019-02-10T00:59:23.412Z,79.02
2019-02-10T01:01:55.120Z,78.66
2019-02-10T01:04:26.937Z,78.79
2019-02-10T01:06:58.808Z,78.97
2019-02-10T01:09:30.804Z,78.58
2019-02-10T01:12:02.507Z,78.19
2019-02-10T01:14:34.157Z,78.46
2019-02-10T01:17:05.508Z,78.87
2019-02-10T01:19:36.931Z,79.15
2019-02-10T01:22:08.931Z,79.97
2019-02-10T01:24:40.336Z,79.24
2019-02-10T01:27:11.971Z,79.16
2019-02-10T01:29:43.392Z,79.11
2019-02-10T01:32:14.684Z,79.20
2019-02-10T01:34:46.523Z,79.35
2019-02-10T01:37:18.015Z,79.33
2019-02-10T01:39:49.589Z,79.76
2019-02-10T01:42:21.187Z,79.99
2019-02-10T01:44:52.694Z,79.43
2019-02-10T01:47:24.492Z,79.37
2019-02-10T01:49:56.727Z,79.41
2019-02-10T01:52:28.002Z,78.78
2019-02-10T01:54:59.477Z,78.34
2019-02-10T01:57:31.081Z,78.21
2019-02-10T02:00:02.803Z,77.69
2019-02-10T02:02:35.618Z,78.00
2019-02-10T02:05:08.362Z,77.96
2019-02-10T02:07:39.923Z,77.69
2019-02-10T02:10:12.864Z,77.37
2019-02-10T02:12:44.254Z,76.80
2019-02-10T02:15:16.465Z,76.83
2019-02-10T02:17:48.103Z,76.92
2019-02-10T02:20:19.372Z,76.94
2019-02-10T02:22:51.020Z,76.73
2019-02-10T02:25:23.767Z,76.74
2019-02-10T02:27:55.392Z,76.83
2019-02-10T02:30:26.853Z,76.62
2019-02-10T02:32:58.112Z,76.44
2019-02-10T02:35:29.745Z,76.49
2019-02-10T02:38:01.484Z,76.38
2019-02-10T02:40:33.058Z,76.42
2019-02-10T02:43:04.846Z,76.04
2019-02-10T02:45:36.410Z,76.29
2019-02-10T02:48:07.973Z,76.04
2019-02-10T02:50:39.515Z,76.23
2019-02-10T02:53:10.955Z,76.03
2019-02-10T02:55:42.280Z,75.85
2019-02-10T02:58:14.047Z,76.09
2019-02-10T03:00:45.501Z,76.01
2019-02-10T03:03:16.872Z,75.84
2019-02-10T03:05:48.276Z,75.83
2019-02-10T03:08:19.541Z,75.79
2019-02-10T03:10:50.770Z,75.66
2019-02-10T03:13:22.143Z,75.63
2019-02-10T03:15:53.751Z,75.94
2019-02-10T03:18:25.092Z,75.77
2019-02-10T03:20:56.666Z,76.07
2019-02-10T03:23:28.122Z,76.64
2019-02-10T03:25:59.662Z,77.28
2019-02-10T03:28:31.292Z,77.51
2019-02-10T03:31:02.866Z,77.88
2019-02-10T03:33:34.376Z,77.76
2019-02-10T03:36:06.053Z,77.76
2019-02-10T03:38:37.554Z,78.49
2019-02-10T03:41:08.948Z,78.21
2019-02-10T03:43:40.559Z,77.58
2019-02-10T03:46:12.106Z,77.94
2019-02-10T03:48:43.438Z,77.09
2019-02-10T03:51:14.931Z,76.69
2019-02-10T03:53:46.244Z,76.63
2019-02-10T03:56:17.755Z,76.42
2019-02-10T03:58:49.085Z,76.32
2019-02-10T04:01:20.639Z,76.23
2019-02-10T04:03:51.928Z,76.61
2019-02-10T04:06:23.461Z,76.77
2019-02-10T04:08:55.045Z,76.58
2019-02-10T04:11:26.975Z,76.48
2019-02-10T04:13:58.593Z,76.59
2019-02-10T04:16:30.156Z,76.21
2019-02-10T04:19:01.442Z,76.61
2019-02-10T04:21:34.187Z,76.44
2019-02-10T04:24:05.906Z,76.50
2019-02-10T04:26:37.402Z,76.44
2019-02-10T04:29:09.074Z,76.67
2019-02-10T04:31:40.733Z,76.94
2019-02-10T04:34:12.242Z,76.94
2019-02-10T04:36:43.674Z,76.94
2019-02-10T04:39:15.017Z,76.93
2019-02-10T04:41:46.722Z,77.08
2019-02-10T04:44:18.375Z,77.56
2019-02-10T04:46:49.845Z,77.46
2019-02-10T04:49:21.583Z,77.55
2019-02-10T04:51:53.298Z,77.48
2019-02-10T04:54:24.682Z,77.88
2019-02-10T04:56:56.171Z,79.44
2019-02-10T04:59:27.816Z,79.63
2019-02-10T05:01:59.324Z,79.62
2019-02-10T05:04:30.920Z,80.52
2019-02-10T05:07:02.557Z,81.37
2019-02-10T05:09:34.102Z,81.39
2019-02-10T05:12:05.847Z,81.97
2019-02-10T05:14:37.545Z,82.08
2019-02-10T05:17:09.338Z,82.35
2019-02-10T05:19:41.175Z,82.06
2019-02-10T05:22:13.030Z,81.85
2019-02-10T05:24:44.604Z,81.76
2019-02-10T05:27:16.184Z,81.64
2019-02-10T05:29:47.720Z,81.60
2019-02-10T05:32:19.208Z,81.49
2019-02-10T05:34:51.791Z,81.42
2019-02-10T05:37:23.430Z,80.98
2019-02-10T05:39:55.120Z,81.23
2019-02-10T05:42:26.796Z,81.46
2019-02-10T05:44:58.462Z,81.38
2019-02-10T05:47:30.097Z,81.09
2019-02-10T05:50:01.720Z,80.45
2019-02-10T05:52:33.298Z,80.09
2019-02-10T05:55:04.892Z,80.28
2019-02-10T05:57:36.389Z,79.96
2019-02-10T06:00:08.209Z,79.44
2019-02-10T06:02:39.864Z,79.86
2019-02-10T06:05:20.287Z,79.33
2019-02-10T06:07:51.997Z,79.10
2019-02-10T06:10:23.253Z,79.19
2019-02-10T06:12:54.916Z,78.56
2019-02-10T06:15:26.216Z,78.30
2019-02-10T06:17:57.784Z,78.70
2019-02-10T06:20:29.501Z,78.40
2019-02-10T06:23:00.967Z,77.48
2019-02-10T06:25:32.198Z,75.38
2019-02-10T06:28:03.587Z,73.84
2019-02-10T06:30:35.133Z,72.33
2019-02-10T06:33:06.408Z,71.88
2019-02-10T06:35:37.984Z,70.16
2019-02-10T06:38:09.437Z,69.29
2019-02-10T06:40:40.885Z,67.42
2019-02-10T06:43:12.274Z,68.27
2019-02-10T06:45:43.547Z,66.82
2019-02-10T06:48:14.823Z,67.46
2019-02-10T06:50:46.382Z,67.37
2019-02-10T06:53:17.686Z,66.31
2019-02-10T06:55:49.306Z,66.72
2019-02-10T06:58:20.609Z,66.22
2019-02-10T07:01:14.293Z,66.08
2019-02-10T07:03:59.507Z,65.81
2019-02-10T07:06:31.068Z,65.91
2019-02-10T07:09:02.784Z,65.96
2019-02-10T07:11:34.629Z,64.65
2019-02-10T07:14:14.018Z,65.17
2019-02-10T07:17:10.331Z,65.59
2019-02-10T07:20:33.521Z,67.25
2019-02-10T07:23:44.238Z,66.95
2019-02-10T07:26:18.777Z,67.00
2019-02-10T07:29:39.983Z,66.22
2019-02-10T07:32:22.400Z,64.67
2019-02-10T07:35:37.069Z,64.72
2019-02-10T07:38:38.607Z,64.76
2019-02-10T07:42:10.749Z,62.90
2019-02-10T07:45:28.777Z,61.28
2019-02-10T07:48:49.480Z,63.84
2019-02-10T07:52:04.347Z,62.18
2019-02-10T07:55:05.396Z,62.64
2019-02-10T07:58:25.760Z,60.69
2019-02-10T08:01:19.455Z,61.72
2019-02-10T08:04:33.309Z,61.40
2019-02-10T08:07:35.701Z,62.34
2019-02-10T08:10:53.075Z,59.91
2019-02-10T08:13:40.780Z,61.40
2019-02-10T08:16:36.358Z,61.19
2019-02-10T08:19:40.465Z,59.64
2019-02-10T08:22:51.348Z,59.19
2019-02-10T08:25:56.612Z,59.83
2019-02-10T08:29:16.389Z,58.47
2019-02-10T08:32:33.403Z,59.55
2019-02-10T08:35:54.464Z,57.64
2019-02-10T08:38:59.941Z,55.58
2019-02-10T08:42:02.742Z,56.59
2019-02-10T08:44:49.652Z,57.38
2019-02-10T08:47:55.273Z,55.80
2019-02-10T08:51:10.199Z,56.77
2019-02-10T08:53:44.054Z,56.05
2019-02-10T08:56:15.676Z,55.34
2019-02-10T08:58:47.026Z,54.91
2019-02-10T09:01:18.267Z,54.73
2019-02-10T09:03:49.833Z,54.83
2019-02-10T09:06:21.222Z,54.59
2019-02-10T09:08:52.602Z,54.26
2019-02-10T09:11:24.120Z,53.75
2019-02-10T09:13:55.722Z,53.53
2019-02-10T09:16:27.334Z,54.40
2019-02-10T09:18:59.080Z,53.79
2019-02-10T09:21:30.952Z,52.24
2019-02-10T09:24:02.656Z,52.31
2019-02-10T09:26:34.276Z,52.28
2019-02-10T09:29:05.871Z,52.19
2019-02-10T09:31:38.540Z,50.91
2019-02-10T09:34:11.192Z,50.92
2019-02-10T09:36:42.938Z,52.31
2019-02-10T09:39:14.333Z,52.83
2019-02-10T09:41:45.650Z,51.27
2019-02-10T09:44:16.992Z,50.08
2019-02-10T09:46:48.952Z,49.86
2019-02-10T09:49:20.558Z,50.31
2019-02-10T09:51:52.096Z,50.07
2019-02-10T09:54:23.679Z,50.00
2019-02-10T09:56:55.058Z,49.03
2019-02-10T09:59:26.913Z,48.23
2019-02-10T10:01:57.962Z,47.30
2019-02-10T10:04:29.267Z,48.12
2019-02-10T10:07:00.697Z,47.67
2019-02-10T10:09:33.208Z,46.78
2019-02-10T10:12:05.265Z,46.41
2019-02-10T10:14:36.649Z,44.79
2019-02-10T10:17:08.112Z,44.64
2019-02-10T10:19:39.497Z,44.93
2019-02-10T10:22:10.827Z,44.75
2019-02-10T10:24:50.208Z,43.31
2019-02-10T10:27:14.856Z,42.89
2019-02-10T10:29:46.131Z,43.24
2019-02-10T10:32:17.299Z,42.88
2019-02-10T10:34:48.799Z,42.37
2019-02-10T10:37:21.102Z,41.18
2019-02-10T10:39:52.306Z,40.64
2019-02-10T10:42:23.739Z,41.75
2019-02-10T10:44:54.682Z,41.02
2019-02-10T10:47:26.257Z,41.29
2019-02-10T10:49:57.617Z,41.87
2019-02-10T10:52:29.087Z,42.23
2019-02-10T10:55:00.443Z,41.02
2019-02-10T10:57:31.996Z,40.94
2019-02-10T11:00:03.494Z,40.77
2019-02-10T11:02:34.847Z,41.14
2019-02-10T11:05:06.270Z,40.63
2019-02-10T11:07:37.519Z,41.13
2019-02-10T11:10:09.069Z,41.35
2019-02-10T11:12:40.637Z,39.87
2019-02-10T11:15:12.160Z,38.52
2019-02-10T11:17:43.419Z,39.02
2019-02-10T11:20:15.224Z,38.32
2019-02-10T11:22:46.542Z,38.67
2019-02-10T11:25:17.879Z,38.61
2019-02-10T11:27:49.265Z,38.66
2019-02-10T11:30:20.569Z,38.49
2019-02-10T11:32:52.203Z,37.64
2019-02-10T11:35:23.827Z,38.39
2019-02-10T11:37:55.226Z,37.16
2019-02-10T11:40:26.723Z,37.16
2019-02-10T11:42:58.036Z,37.09
2019-02-10T11:45:29.389Z,37.02
2019-02-10T11:48:00.677Z,36.94
2019-02-10T11:50:31.980Z,37.69
2019-02-10T11:53:03.239Z,36.24
2019-02-10T11:55:34.684Z,37.15
2019-02-10T11:58:06.531Z,37.15
2019-02-10T12:00:37.848Z,36.46
2019-02-10T12:03:09.049Z,36.46
2019-02-10T12:05:40.484Z,36.54
2019-02-10T12:08:11.583Z,36.67
2019-02-10T12:10:42.858Z,36.67
2019-02-10T12:13:14.405Z,36.65
2019-02-10T12:15:45.842Z,36.65
2019-02-10T12:18:16.846Z,36.17
2019-02-10T12:20:51.080Z,36.29
2019-02-10T12:23:22.486Z,38.32
2019-02-10T12:25:53.611Z,37.58
2019-02-10T12:28:25.025Z,36.16
2019-02-10T12:30:55.969Z,36.32
2019-02-10T12:33:27.304Z,36.54
2019-02-10T12:35:58.666Z,36.54
2019-02-10T12:38:29.680Z,35.36
2019-02-10T12:41:01.224Z,35.96
2019-02-10T12:43:32.412Z,36.93
2019-02-10T12:46:03.688Z,36.36
2019-02-10T12:48:35.160Z,36.82
2019-02-10T12:51:06.397Z,36.82
2019-02-10T12:53:37.235Z,37.90
2019-02-10T12:56:08.293Z,38.07
2019-02-10T12:58:39.315Z,38.30
2019-02-10T13:01:10.511Z,38.83
2019-02-10T13:03:41.817Z,38.43
2019-02-10T13:06:13.192Z,38.63
2019-02-10T13:08:44.522Z,38.00
2019-02-10T13:11:15.692Z,38.33
2019-02-10T13:13:46.808Z,38.44
2019-02-10T13:16:17.859Z,38.21
2019-02-10T13:18:48.888Z,39.66
2019-02-10T13:21:20.238Z,38.88
2019-02-10T13:23:51.494Z,38.10
2019-02-10T13:26:22.968Z,38.36
2019-02-10T13:28:54.147Z,38.52
2019-02-10T13:31:25.520Z,38.41
2019-02-10T13:33:56.989Z,38.03
2019-02-10T13:36:28.245Z,37.92
2019-02-10T13:38:59.816Z,38.09
2019-02-10T13:41:38.445Z,37.64
2019-02-10T13:44:09.889Z,37.64
2019-02-10T13:46:41.146Z,37.80
2019-02-10T13:49:12.244Z,37.41
2019-02-10T13:51:43.246Z,37.46
2019-02-10T13:54:14.518Z,37.85
2019-02-10T13:56:45.601Z,37.32
2019-02-10T13:59:16.913Z,37.94
2019-02-10T14:01:47.912Z,37.47
2019-02-10T14:04:19.468Z,37.95
2019-02-10T14:06:50.740Z,37.25
2019-02-10T14:09:22.066Z,37.16
2019-02-10T14:11:53.473Z,37.46
2019-02-10T14:14:24.920Z,37.61
2019-02-10T14:16:56.255Z,36.97
2019-02-10T14:19:27.449Z,36.95
2019-02-10T14:21:58.700Z,36.77
2019-02-10T14:24:29.981Z,37.32
2019-02-10T14:27:01.289Z,36.97
2019-02-10T14:29:32.738Z,36.10
2019-02-10T14:32:04.197Z,37.02
2019-02-10T14:34:35.483Z,37.19
2019-02-10T14:37:06.834Z,37.19
2019-02-10T14:39:38.195Z,37.10
2019-02-10T14:42:09.410Z,36.86
2019-02-10T14:44:40.658Z,37.62
2019-02-10T14:47:11.997Z,36.88
2019-02-10T14:49:43.236Z,36.85
2019-02-10T14:52:14.403Z,37.31
2019-02-10T14:54:45.430Z,37.70
2019-02-10T14:57:16.432Z,36.75
2019-02-10T14:59:47.361Z,37.21
2019-02-10T15:02:18.345Z,36.53
2019-02-10T15:04:49.818Z,37.29
2019-02-10T15:07:25.307Z,37.11
2019-02-10T15:09:53.540Z,37.47
2019-02-10T15:12:24.950Z,37.51
2019-02-10T15:14:56.431Z,37.51
2019-02-10T15:17:27.850Z,37.54
2019-02-10T15:19:59.134Z,37.65
2019-02-10T15:22:30.419Z,37.67
2019-02-10T15:25:01.493Z,39.63
2019-02-10T15:27:32.688Z,39.44
2019-02-10T15:30:03.978Z,39.65
2019-02-10T15:32:35.510Z,39.48
2019-02-10T15:35:07.083Z,39.26
2019-02-10T15:37:38.392Z,39.76
2019-02-10T15:40:10.085Z,39.53
2019-02-10T15:42:41.670Z,39.70
2019-02-10T15:45:12.752Z,39.69
2019-02-10T15:47:43.987Z,40.25
2019-02-10T15:50:15.683Z,40.95
2019-02-10T15:52:47.007Z,40.50
2019-02-10T15:55:18.326Z,40.24
2019-02-10T15:57:49.801Z,42.22
2019-02-10T16:00:22.904Z,41.37
2019-02-10T16:02:54.224Z,41.42
2019-02-10T16:05:25.535Z,41.57
2019-02-10T16:07:56.868Z,41.87
2019-02-10T16:10:28.203Z,40.60
2019-02-10T16:12:59.614Z,41.37
2019-02-10T16:15:30.852Z,41.18
2019-02-10T16:18:02.370Z,40.94
2019-02-10T16:20:33.434Z,41.74
2019-02-10T16:23:04.741Z,41.97
2019-02-10T16:25:36.038Z,41.72
2019-02-10T16:28:07.368Z,42.67
2019-02-10T16:30:38.610Z,41.44
2019-02-10T16:33:09.871Z,41.71
2019-02-10T16:35:41.045Z,41.66
2019-02-10T16:38:12.405Z,41.91
2019-02-10T16:40:43.663Z,42.26
2019-02-10T16:43:14.872Z,42.36
2019-02-10T16:45:46.623Z,41.71
2019-02-10T16:48:18.422Z,41.98
2019-02-10T16:50:49.725Z,42.08
2019-02-10T16:53:21.044Z,41.81
2019-02-10T16:55:52.590Z,43.05
2019-02-10T16:58:23.896Z,43.62
2019-02-10T17:00:55.371Z,45.14
2019-02-10T17:03:26.527Z,43.92
2019-02-10T17:05:58.231Z,44.83
2019-02-10T17:08:29.455Z,44.56
2019-02-10T17:11:00.911Z,45.45
2019-02-10T17:13:33.001Z,47.48
2019-02-10T17:16:05.375Z,47.17
2019-02-10T17:18:36.999Z,48.99
2019-02-10T17:21:08.617Z,46.53
2019-02-10T17:23:40.154Z,48.49
2019-02-10T17:26:12.802Z,50.94
2019-02-10T17:28:44.205Z,49.46
2019-02-10T17:31:15.439Z,49.03
2019-02-10T17:33:46.669Z,48.95
2019-02-10T17:36:18.145Z,49.38
2019-02-10T17:38:49.884Z,50.43
2019-02-10T17:41:25.804Z,51.61
2019-02-10T17:43:57.728Z,50.04
2019-02-10T17:46:29.306Z,49.76
2019-02-10T17:49:00.764Z,49.20
2019-02-10T17:51:32.506Z,51.28
2019-02-10T17:54:04.103Z,51.42
2019-02-10T17:56:35.676Z,51.97
2019-02-10T17:59:07.272Z,51.76
2019-02-10T18:01:38.753Z,52.29
2019-02-10T18:04:10.122Z,52.86
2019-02-10T18:06:41.813Z,53.10
2019-02-10T18:09:13.174Z,53.54
2019-02-10T18:11:44.796Z,53.70
2019-02-10T18:14:41.030Z,54.12
2019-02-10T18:17:49.965Z,53.93
2019-02-10T18:20:28.717Z,54.92
2019-02-10T18:23:17.843Z,55.37
2019-02-10T18:26:20.428Z,54.98
2019-02-10T18:29:13.555Z,55.00
2019-02-10T18:32:01.901Z,54.71
2019-02-10T18:34:58.162Z,55.50
2019-02-10T18:37:43.009Z,54.85
2019-02-10T18:40:39.665Z,56.15
2019-02-10T18:43:22.806Z,55.93
2019-02-10T18:46:18.671Z,55.44
2019-02-10T18:49:00.886Z,56.19
2019-02-10T18:51:43.029Z,56.21
2019-02-10T18:54:37.336Z,55.80
2019-02-10T18:57:18.311Z,55.45
2019-02-10T19:00:17.987Z,56.66
2019-02-10T19:02:59.979Z,57.40
2019-02-10T19:05:56.560Z,56.61
2019-02-10T19:08:39.341Z,56.37
2019-02-10T19:11:32.519Z,56.00
2019-02-10T19:14:25.826Z,56.09
2019-02-10T19:17:07.696Z,58.33
2019-02-10T19:20:06.895Z,57.97
2019-02-10T19:23:00.429Z,57.80
2019-02-10T19:25:51.133Z,57.57
2019-02-10T19:28:35.176Z,57.68
2019-02-10T19:31:13.319Z,58.13
2019-02-10T19:34:02.943Z,58.03
2019-02-10T19:36:52.169Z,58.34
2019-02-10T19:39:59.133Z,58.04
2019-02-10T19:42:48.386Z,58.77
2019-02-10T19:45:46.535Z,58.77
2019-02-10T19:48:37.153Z,59.78
2019-02-10T19:51:27.369Z,58.91
2019-02-10T19:54:13.368Z,59.05
2019-02-10T19:57:09.680Z,59.06
2019-02-10T20:00:09.282Z,57.80
2019-02-10T20:02:59.191Z,58.52
2019-02-10T20:06:02.357Z,56.58
2019-02-10T20:08:44.351Z,56.30
2019-02-10T20:11:41.102Z,55.73
2019-02-10T20:14:31.703Z,55.94
2019-02-10T20:17:19.334Z,56.18
2019-02-10T20:20:08.174Z,56.38
2019-02-10T20:23:04.544Z,56.64
2019-02-10T20:25:54.934Z,56.38
2019-02-10T20:28:44.184Z,56.25
2019-02-10T20:31:28.258Z,55.90
2019-02-10T20:34:18.634Z,56.02
2019-02-10T20:37:12.241Z,56.21
2019-02-10T20:39:58.717Z,56.13
2019-02-10T20:42:46.674Z,56.35
2019-02-10T20:45:40.137Z,57.31
2019-02-10T20:48:36.701Z,57.51
2019-02-10T20:51:20.239Z,58.30
2019-02-10T20:54:10.036Z,58.45
2019-02-10T20:56:48.376Z,58.54
2019-02-10T20:59:41.322Z,58.63
2019-02-10T21:02:31.852Z,58.51
2019-02-10T21:05:16.771Z,58.48
2019-02-10T21:08:13.336Z,59.27
2019-02-10T21:11:03.835Z,59.46
2019-02-10T21:13:50.672Z,59.29
2019-02-10T21:16:59.149Z,59.80
2019-02-10T21:20:02.270Z,59.65
2019-02-10T21:22:46.200Z,60.31
2019-02-10T21:25:35.774Z,61.07
2019-02-10T21:28:25.014Z,61.50
2019-02-10T21:31:14.179Z,62.18
2019-02-10T21:33:52.384Z,62.46
2019-02-10T21:36:44.869Z,62.70
2019-02-10T21:39:38.153Z,63.79
2019-02-10T21:42:29.079Z,64.25
2019-02-10T21:45:15.902Z,64.77
2019-02-10T21:47:54.724Z,64.74
2019-02-10T21:50:26.380Z,65.56
2019-02-10T21:52:57.866Z,66.17
2019-02-10T21:55:29.518Z,66.13
2019-02-10T21:58:00.908Z,66.64
2019-02-10T22:00:32.487Z,67.72
2019-02-10T22:03:04.086Z,67.99
2019-02-10T22:05:35.359Z,67.75
2019-02-10T22:08:06.998Z,68.08
2019-02-10T22:10:38.783Z,68.41
2019-02-10T22:13:10.425Z,68.30
2019-02-10T22:15:42.078Z,68.54
2019-02-10T22:18:13.736Z,68.82
2019-02-10T22:20:45.263Z,69.12
2019-02-10T22:23:16.856Z,68.95
2019-02-10T22:25:48.487Z,68.78
2019-02-10T22:28:19.809Z,68.74
2019-02-10T22:30:51.146Z,68.98
2019-02-10T22:33:22.803Z,68.71
2019-02-10T22:35:54.086Z,68.71
2019-02-10T22:38:25.751Z,68.59
2019-02-10T22:40:57.261Z,69.09
2019-02-10T22:43:28.865Z,69.41
2019-02-10T22:46:00.321Z,69.51
2019-02-10T22:48:31.644Z,69.65
2019-02-10T22:51:02.856Z,69.22
2019-02-10T22:53:34.454Z,69.48
2019-02-10T22:56:06.123Z,69.05
2019-02-10T22:58:37.781Z,69.47
2019-02-10T23:01:09.658Z,69.35
2019-02-10T23:03:41.229Z,68.97
2019-02-10T23:06:12.845Z,69.30
2019-02-10T23:08:44.317Z,69.31
2019-02-10T23:11:15.634Z,69.08
2019-02-10T23:13:47.003Z,69.14
2019-02-10T23:16:18.378Z,69.44
2019-02-10T23:18:49.601Z,69.87
2019-02-10T23:21:20.842Z,69.48
2019-02-10T23:23:52.046Z,69.75
2019-02-10T23:26:23.617Z,70.21
2019-02-10T23:28:54.854Z,69.89
2019-02-10T23:31:26.134Z,70.54
2019-02-10T23:33:57.696Z,70.29
2019-02-10T23:36:29.429Z,70.88
2019-02-10T23:39:01.026Z,70.91
2019-02-10T23:41:34.204Z,70.69
2019-02-10T23:44:05.692Z,70.68
2019-02-10T23:46:37.277Z,70.43
2019-02-10T23:49:08.852Z,70.31
2019-02-10T23:51:40.357Z,70.47
2019-02-10T23:54:11.952Z,70.22
2019-02-10T23:56:47.228Z,70.39
2019-02-10T23:59:16.259Z,70.43
